sensor_id;sensor_type;location;lat;lon;timestamp;temperature;humidity
21267;DHT22;10791;53.108;18.326;2022-08-23T00:12:38;18.50;99.90
21267;DHT22;10791;53.108;18.326;2022-08-23T00:18:40;18.40;99.90
21267;DHT22;10791;53.108;18.326;2022-08-23T00:32:04;18.60;99.90
21267;DHT22;10791;53.108;18.326;2022-08-23T00:37:53;18.60;99.90
21267;DHT22;10791;53.108;18.326;2022-08-23T00:43:55;18.60;99.90
21267;DHT22;10791;53.108;18.326;2022-08-23T00:50:22;18.70;99.90
21267;DHT22;10791;53.108;18.326;2022-08-23T00:55:30;18.70;99.90
21267;DHT22;10791;53.108;18.326;2022-08-23T01:15:10;18.90;99.90
21267;DHT22;10791;53.108;18.326;2022-08-23T01:20:24;18.80;99.90
21267;DHT22;10791;53.108;18.326;2022-08-23T01:25:40;18.90;99.90
21267;DHT22;10791;53.108;18.326;2022-08-23T01:37:46;18.90;99.90
21267;DHT22;10791;53.108;18.326;2022-08-23T01:42:50;18.90;99.90
21267;DHT22;10791;53.108;18.326;2022-08-23T01:47:53;18.80;99.90
21267;DHT22;10791;53.108;18.326;2022-08-23T01:52:59;18.80;99.90
21267;DHT22;10791;53.108;18.326;2022-08-23T01:58:04;18.80;99.90
21267;DHT22;10791;53.108;18.326;2022-08-23T02:03:13;18.80;99.90
21267;DHT22;10791;53.108;18.326;2022-08-23T02:08:18;18.80;99.90
21267;DHT22;10791;53.108;18.326;2022-08-23T02:13:43;18.70;99.90
21267;DHT22;10791;53.108;18.326;2022-08-23T02:18:46;18.70;99.90
21267;DHT22;10791;53.108;18.326;2022-08-23T02:23:50;18.70;99.90
21267;DHT22;10791;53.108;18.326;2022-08-23T02:28:54;18.60;99.90
21267;DHT22;10791;53.108;18.326;2022-08-23T02:33:57;18.60;99.90
21267;DHT22;10791;53.108;18.326;2022-08-23T02:39:37;18.60;99.90
21267;DHT22;10791;53.108;18.326;2022-08-23T02:44:54;18.60;99.90
21267;DHT22;10791;53.108;18.326;2022-08-23T02:50:05;18.50;99.90
21267;DHT22;10791;53.108;18.326;2022-08-23T02:55:30;18.60;99.90
21267;DHT22;10791;53.108;18.326;2022-08-23T03:07:35;18.60;99.90
21267;DHT22;10791;53.108;18.326;2022-08-23T03:14:20;18.60;99.90
21267;DHT22;10791;53.108;18.326;2022-08-23T03:27:35;18.60;99.90
21267;DHT22;10791;53.108;18.326;2022-08-23T03:33:21;18.70;99.90
21267;DHT22;10791;53.108;18.326;2022-08-23T03:38:41;18.70;99.90
21267;DHT22;10791;53.108;18.326;2022-08-23T03:43:44;18.70;99.90
21267;DHT22;10791;53.108;18.326;2022-08-23T03:48:56;18.70;99.90
21267;DHT22;10791;53.108;18.326;2022-08-23T03:54:01;18.70;99.90
21267;DHT22;10791;53.108;18.326;2022-08-23T03:59:07;18.80;99.90
21267;DHT22;10791;53.108;18.326;2022-08-23T04:10:30;18.80;99.90
21267;DHT22;10791;53.108;18.326;2022-08-23T04:15:34;18.80;99.90
21267;DHT22;10791;53.108;18.326;2022-08-23T04:20:37;18.90;99.90
21267;DHT22;10791;53.108;18.326;2022-08-23T04:25:41;18.90;99.90
21267;DHT22;10791;53.108;18.326;2022-08-23T04:30:50;18.90;99.90
21267;DHT22;10791;53.108;18.326;2022-08-23T04:35:54;19.00;99.90
21267;DHT22;10791;53.108;18.326;2022-08-23T04:40:58;19.00;99.90
21267;DHT22;10791;53.108;18.326;2022-08-23T04:46:20;19.00;99.90
21267;DHT22;10791;53.108;18.326;2022-08-23T04:51:23;19.10;99.90
21267;DHT22;10791;53.108;18.326;2022-08-23T04:56:27;19.20;99.90
21267;DHT22;10791;53.108;18.326;2022-08-23T05:01:30;19.30;99.90
21267;DHT22;10791;53.108;18.326;2022-08-23T05:06:34;19.40;99.90
21267;DHT22;10791;53.108;18.326;2022-08-23T05:11:38;19.50;99.90
21267;DHT22;10791;53.108;18.326;2022-08-23T05:16:41;19.70;99.90
21267;DHT22;10791;53.108;18.326;2022-08-23T05:21:44;19.90;99.90
21267;DHT22;10791;53.108;18.326;2022-08-23T05:26:48;20.10;99.90
21267;DHT22;10791;53.108;18.326;2022-08-23T05:31:51;20.30;99.90
21267;DHT22;10791;53.108;18.326;2022-08-23T05:36:55;20.50;99.90
21267;DHT22;10791;53.108;18.326;2022-08-23T05:41:58;20.70;99.90
21267;DHT22;10791;53.108;18.326;2022-08-23T05:47:06;20.80;99.90
21267;DHT22;10791;53.108;18.326;2022-08-23T05:52:13;20.90;99.90
21267;DHT22;10791;53.108;18.326;2022-08-23T05:57:16;21.00;99.90
21267;DHT22;10791;53.108;18.326;2022-08-23T06:02:20;21.00;99.90
21267;DHT22;10791;53.108;18.326;2022-08-23T06:07:23;21.10;99.90
21267;DHT22;10791;53.108;18.326;2022-08-23T06:12:27;21.20;99.90
21267;DHT22;10791;53.108;18.326;2022-08-23T06:17:30;21.30;99.90
21267;DHT22;10791;53.108;18.326;2022-08-23T06:22:33;21.40;99.90
21267;DHT22;10791;53.108;18.326;2022-08-23T06:27:36;21.40;99.90
21267;DHT22;10791;53.108;18.326;2022-08-23T06:32:40;21.20;99.90
21267;DHT22;10791;53.108;18.326;2022-08-23T06:37:45;21.20;99.90
21267;DHT22;10791;53.108;18.326;2022-08-23T06:42:48;21.30;99.90
21267;DHT22;10791;53.108;18.326;2022-08-23T06:47:51;21.70;99.90
21267;DHT22;10791;53.108;18.326;2022-08-23T06:52:55;21.80;99.90
21267;DHT22;10791;53.108;18.326;2022-08-23T06:57:58;21.70;99.90
21267;DHT22;10791;53.108;18.326;2022-08-23T07:03:01;21.50;99.90
21267;DHT22;10791;53.108;18.326;2022-08-23T07:08:05;21.50;99.90
21267;DHT22;10791;53.108;18.326;2022-08-23T07:13:08;21.40;99.90
21267;DHT22;10791;53.108;18.326;2022-08-23T07:18:11;21.30;99.90
21267;DHT22;10791;53.108;18.326;2022-08-23T07:23:15;21.20;99.90
21267;DHT22;10791;53.108;18.326;2022-08-23T07:28:19;21.10;99.90
21267;DHT22;10791;53.108;18.326;2022-08-23T07:33:23;21.00;99.90
21267;DHT22;10791;53.108;18.326;2022-08-23T07:38:26;21.10;99.90
21267;DHT22;10791;53.108;18.326;2022-08-23T07:43:32;21.30;99.90
21267;DHT22;10791;53.108;18.326;2022-08-23T07:48:36;21.30;99.90
21267;DHT22;10791;53.108;18.326;2022-08-23T07:53:56;21.20;99.90
21267;DHT22;10791;53.108;18.326;2022-08-23T07:58:59;21.20;99.90
21267;DHT22;10791;53.108;18.326;2022-08-23T08:04:04;21.10;99.90
21267;DHT22;10791;53.108;18.326;2022-08-23T08:09:09;21.00;99.90
21267;DHT22;10791;53.108;18.326;2022-08-23T08:14:13;21.00;99.90
21267;DHT22;10791;53.108;18.326;2022-08-23T08:19:17;21.00;99.90
21267;DHT22;10791;53.108;18.326;2022-08-23T08:24:21;21.00;99.90
21267;DHT22;10791;53.108;18.326;2022-08-23T08:29:24;21.10;99.90
21267;DHT22;10791;53.108;18.326;2022-08-23T08:34:28;21.10;99.90
21267;DHT22;10791;53.108;18.326;2022-08-23T08:39:32;21.20;99.90
21267;DHT22;10791;53.108;18.326;2022-08-23T08:55:19;21.50;99.90
21267;DHT22;10791;53.108;18.326;2022-08-23T09:00:27;21.50;99.90
21267;DHT22;10791;53.108;18.326;2022-08-23T09:05:36;21.70;99.90
21267;DHT22;10791;53.108;18.326;2022-08-23T09:16:10;22.20;99.90
21267;DHT22;10791;53.108;18.326;2022-08-23T09:21:18;22.50;99.90
21267;DHT22;10791;53.108;18.326;2022-08-23T09:26:24;23.00;99.90
21267;DHT22;10791;53.108;18.326;2022-08-23T09:31:43;23.50;99.90
21267;DHT22;10791;53.108;18.326;2022-08-23T09:36:47;24.00;99.90
21267;DHT22;10791;53.108;18.326;2022-08-23T09:41:53;24.20;99.90
21267;DHT22;10791;53.108;18.326;2022-08-23T09:47:10;24.40;99.90
21267;DHT22;10791;53.108;18.326;2022-08-23T09:52:31;24.30;99.90
21267;DHT22;10791;53.108;18.326;2022-08-23T09:57:35;24.40;99.90
21267;DHT22;10791;53.108;18.326;2022-08-23T10:02:39;24.40;99.90
21267;DHT22;10791;53.108;18.326;2022-08-23T10:07:44;24.40;99.90
21267;DHT22;10791;53.108;18.326;2022-08-23T10:12:55;24.80;99.90
21267;DHT22;10791;53.108;18.326;2022-08-23T10:18:06;25.10;99.90
21267;DHT22;10791;53.108;18.326;2022-08-23T10:23:18;25.10;99.90
21267;DHT22;10791;53.108;18.326;2022-08-23T10:28:41;25.20;99.90
21267;DHT22;10791;53.108;18.326;2022-08-23T10:39:28;25.60;99.90
21267;DHT22;10791;53.108;18.326;2022-08-23T10:44:56;25.60;99.90
21267;DHT22;10791;53.108;18.326;2022-08-23T10:50:12;25.50;99.90
21267;DHT22;10791;53.108;18.326;2022-08-23T10:55:54;25.80;99.90
21267;DHT22;10791;53.108;18.326;2022-08-23T11:01:08;26.00;99.90
21267;DHT22;10791;53.108;18.326;2022-08-23T11:17:23;26.50;99.90
21267;DHT22;10791;53.108;18.326;2022-08-23T11:22:32;26.20;99.90
21267;DHT22;10791;53.108;18.326;2022-08-23T11:27:39;26.60;99.90
21267;DHT22;10791;53.108;18.326;2022-08-23T11:32:44;27.10;99.90
21267;DHT22;10791;53.108;18.326;2022-08-23T11:37:55;27.10;99.90
21267;DHT22;10791;53.108;18.326;2022-08-23T11:54:29;27.10;99.90
21267;DHT22;10791;53.108;18.326;2022-08-23T12:05:03;27.60;99.90
21267;DHT22;10791;53.108;18.326;2022-08-23T12:10:15;27.80;99.90
21267;DHT22;10791;53.108;18.326;2022-08-23T12:21:06;27.90;99.90
21267;DHT22;10791;53.108;18.326;2022-08-23T12:42:37;28.10;99.90
21267;DHT22;10791;53.108;18.326;2022-08-23T12:47:42;28.00;99.90
21267;DHT22;10791;53.108;18.326;2022-08-23T12:52:56;27.80;99.90
21267;DHT22;10791;53.108;18.326;2022-08-23T12:58:00;27.70;99.90
21267;DHT22;10791;53.108;18.326;2022-08-23T13:03:17;27.50;99.90
21267;DHT22;10791;53.108;18.326;2022-08-23T13:08:28;27.20;99.90
21267;DHT22;10791;53.108;18.326;2022-08-23T13:13:41;27.00;99.90
21267;DHT22;10791;53.108;18.326;2022-08-23T13:18:45;26.70;99.90
21267;DHT22;10791;53.108;18.326;2022-08-23T13:23:59;26.40;99.90
21267;DHT22;10791;53.108;18.326;2022-08-23T13:34:37;26.20;99.90
21267;DHT22;10791;53.108;18.326;2022-08-23T13:39:51;26.30;99.90
21267;DHT22;10791;53.108;18.326;2022-08-23T13:44:56;26.30;99.90
21267;DHT22;10791;53.108;18.326;2022-08-23T13:50:00;26.30;99.90
21267;DHT22;10791;53.108;18.326;2022-08-23T13:55:04;26.20;99.90
21267;DHT22;10791;53.108;18.326;2022-08-23T14:00:08;26.00;99.90
21267;DHT22;10791;53.108;18.326;2022-08-23T14:05:18;26.00;99.90
21267;DHT22;10791;53.108;18.326;2022-08-23T14:10:23;25.90;99.90
21267;DHT22;10791;53.108;18.326;2022-08-23T14:15:27;26.00;99.90
21267;DHT22;10791;53.108;18.326;2022-08-23T14:20:51;26.00;99.90
21267;DHT22;10791;53.108;18.326;2022-08-23T14:25:55;25.90;99.90
21267;DHT22;10791;53.108;18.326;2022-08-23T14:30:58;25.70;99.90
21267;DHT22;10791;53.108;18.326;2022-08-23T14:36:02;25.60;99.90
21267;DHT22;10791;53.108;18.326;2022-08-23T14:41:08;25.50;99.90
21267;DHT22;10791;53.108;18.326;2022-08-23T14:46:12;25.30;99.90
21267;DHT22;10791;53.108;18.326;2022-08-23T14:51:31;25.00;99.90
21267;DHT22;10791;53.108;18.326;2022-08-23T14:56:35;24.70;99.90
21267;DHT22;10791;53.108;18.326;2022-08-23T15:01:46;24.50;99.90
21267;DHT22;10791;53.108;18.326;2022-08-23T15:06:51;24.40;99.90
21267;DHT22;10791;53.108;18.326;2022-08-23T15:12:16;24.20;99.90
21267;DHT22;10791;53.108;18.326;2022-08-23T15:17:49;24.00;99.90
21267;DHT22;10791;53.108;18.326;2022-08-23T15:22:54;23.80;99.90
21267;DHT22;10791;53.108;18.326;2022-08-23T15:27:58;23.60;99.90
21267;DHT22;10791;53.108;18.326;2022-08-23T15:33:04;23.50;99.90
21267;DHT22;10791;53.108;18.326;2022-08-23T15:38:14;23.30;99.90
21267;DHT22;10791;53.108;18.326;2022-08-23T15:43:19;23.10;99.90
21267;DHT22;10791;53.108;18.326;2022-08-23T15:48:29;22.90;99.90
21267;DHT22;10791;53.108;18.326;2022-08-23T15:53:36;22.70;99.90
21267;DHT22;10791;53.108;18.326;2022-08-23T15:58:41;22.70;99.90
21267;DHT22;10791;53.108;18.326;2022-08-23T16:03:44;22.60;99.90
21267;DHT22;10791;53.108;18.326;2022-08-23T16:08:50;22.50;99.90
21267;DHT22;10791;53.108;18.326;2022-08-23T16:13:54;22.30;99.90
21267;DHT22;10791;53.108;18.326;2022-08-23T16:18:58;22.20;99.90
21267;DHT22;10791;53.108;18.326;2022-08-23T16:24:02;22.00;99.90
21267;DHT22;10791;53.108;18.326;2022-08-23T16:29:08;22.00;99.90
21267;DHT22;10791;53.108;18.326;2022-08-23T16:34:16;22.00;99.90
21267;DHT22;10791;53.108;18.326;2022-08-23T16:39:20;22.00;99.90
21267;DHT22;10791;53.108;18.326;2022-08-23T16:44:33;22.00;99.90
21267;DHT22;10791;53.108;18.326;2022-08-23T16:49:44;21.90;99.90
21267;DHT22;10791;53.108;18.326;2022-08-23T16:54:47;21.90;99.90
21267;DHT22;10791;53.108;18.326;2022-08-23T16:59:53;21.80;99.90
21267;DHT22;10791;53.108;18.326;2022-08-23T17:04:58;21.80;99.90
21267;DHT22;10791;53.108;18.326;2022-08-23T17:10:02;21.90;99.90
21267;DHT22;10791;53.108;18.326;2022-08-23T17:15:08;21.70;99.90
21267;DHT22;10791;53.108;18.326;2022-08-23T17:20:13;21.70;99.90
21267;DHT22;10791;53.108;18.326;2022-08-23T17:25:17;21.50;99.90
21267;DHT22;10791;53.108;18.326;2022-08-23T17:45:49;21.30;99.90
21267;DHT22;10791;53.108;18.326;2022-08-23T17:50:53;21.20;99.90
21267;DHT22;10791;53.108;18.326;2022-08-23T17:55:57;21.10;99.90
21267;DHT22;10791;53.108;18.326;2022-08-23T18:01:00;21.00;99.90
21267;DHT22;10791;53.108;18.326;2022-08-23T18:06:05;20.90;99.90
21267;DHT22;10791;53.108;18.326;2022-08-23T18:11:18;20.90;99.90
21267;DHT22;10791;53.108;18.326;2022-08-23T18:16:22;20.80;99.90
21267;DHT22;10791;53.108;18.326;2022-08-23T18:21:31;20.80;99.90
21267;DHT22;10791;53.108;18.326;2022-08-23T18:26:36;20.70;99.90
21267;DHT22;10791;53.108;18.326;2022-08-23T18:31:58;20.60;99.90
21267;DHT22;10791;53.108;18.326;2022-08-23T18:37:04;20.50;99.90
21267;DHT22;10791;53.108;18.326;2022-08-23T18:42:08;20.40;99.90
21267;DHT22;10791;53.108;18.326;2022-08-23T18:47:12;20.40;99.90
21267;DHT22;10791;53.108;18.326;2022-08-23T18:52:17;20.30;99.90
21267;DHT22;10791;53.108;18.326;2022-08-23T18:57:20;20.20;99.90
21267;DHT22;10791;53.108;18.326;2022-08-23T19:02:24;20.10;99.90
21267;DHT22;10791;53.108;18.326;2022-08-23T19:07:29;20.00;99.90
21267;DHT22;10791;53.108;18.326;2022-08-23T19:12:32;19.90;99.90
21267;DHT22;10791;53.108;18.326;2022-08-23T19:17:37;19.90;99.90
21267;DHT22;10791;53.108;18.326;2022-08-23T19:22:41;19.80;99.90
21267;DHT22;10791;53.108;18.326;2022-08-23T19:27:46;19.80;99.90
21267;DHT22;10791;53.108;18.326;2022-08-23T19:32:50;19.70;99.90
21267;DHT22;10791;53.108;18.326;2022-08-23T19:38:56;19.70;99.90
21267;DHT22;10791;53.108;18.326;2022-08-23T19:44:14;19.70;99.90
21267;DHT22;10791;53.108;18.326;2022-08-23T19:49:27;19.80;99.90
21267;DHT22;10791;53.108;18.326;2022-08-23T19:54:41;19.80;99.90
21267;DHT22;10791;53.108;18.326;2022-08-23T19:59:59;19.80;99.90
21267;DHT22;10791;53.108;18.326;2022-08-23T20:05:04;19.80;99.90
21267;DHT22;10791;53.108;18.326;2022-08-23T20:10:12;19.70;99.90
21267;DHT22;10791;53.108;18.326;2022-08-23T20:15:17;19.70;99.90
21267;DHT22;10791;53.108;18.326;2022-08-23T20:20:21;19.70;99.90
21267;DHT22;10791;53.108;18.326;2022-08-23T20:25:27;19.80;99.90
21267;DHT22;10791;53.108;18.326;2022-08-23T20:30:35;19.80;99.90
21267;DHT22;10791;53.108;18.326;2022-08-23T20:35:39;19.70;99.90
21267;DHT22;10791;53.108;18.326;2022-08-23T20:40:43;19.60;99.90
21267;DHT22;10791;53.108;18.326;2022-08-23T20:45:48;19.40;99.90
21267;DHT22;10791;53.108;18.326;2022-08-23T20:50:52;19.30;99.90
21267;DHT22;10791;53.108;18.326;2022-08-23T20:55:56;19.20;99.90
21267;DHT22;10791;53.108;18.326;2022-08-23T21:00:59;19.20;99.90
21267;DHT22;10791;53.108;18.326;2022-08-23T21:06:07;19.20;99.90
21267;DHT22;10791;53.108;18.326;2022-08-23T21:11:11;19.30;99.90
21267;DHT22;10791;53.108;18.326;2022-08-23T21:16:16;19.30;99.90
21267;DHT22;10791;53.108;18.326;2022-08-23T21:21:20;19.30;99.90
21267;DHT22;10791;53.108;18.326;2022-08-23T21:26:23;19.30;99.90
21267;DHT22;10791;53.108;18.326;2022-08-23T21:31:27;19.20;99.90
21267;DHT22;10791;53.108;18.326;2022-08-23T21:36:31;19.20;99.90
21267;DHT22;10791;53.108;18.326;2022-08-23T21:41:37;19.20;99.90
21267;DHT22;10791;53.108;18.326;2022-08-23T21:46:41;19.20;99.90
21267;DHT22;10791;53.108;18.326;2022-08-23T21:51:45;19.10;99.90
21267;DHT22;10791;53.108;18.326;2022-08-23T21:56:50;19.10;99.90
21267;DHT22;10791;53.108;18.326;2022-08-23T22:01:54;19.20;99.90
21267;DHT22;10791;53.108;18.326;2022-08-23T22:07:00;19.10;99.90
21267;DHT22;10791;53.108;18.326;2022-08-23T22:12:04;19.10;99.90
21267;DHT22;10791;53.108;18.326;2022-08-23T22:17:09;19.10;99.90
21267;DHT22;10791;53.108;18.326;2022-08-23T22:22:12;19.10;99.90
21267;DHT22;10791;53.108;18.326;2022-08-23T22:27:17;19.10;99.90
21267;DHT22;10791;53.108;18.326;2022-08-23T22:32:22;19.10;99.90
21267;DHT22;10791;53.108;18.326;2022-08-23T22:37:38;19.10;99.90
21267;DHT22;10791;53.108;18.326;2022-08-23T22:43:15;19.00;99.90
21267;DHT22;10791;53.108;18.326;2022-08-23T22:48:25;18.90;99.90
21267;DHT22;10791;53.108;18.326;2022-08-23T22:53:42;18.90;99.90
21267;DHT22;10791;53.108;18.326;2022-08-23T22:58:50;18.90;99.90
21267;DHT22;10791;53.108;18.326;2022-08-23T23:03:59;18.90;99.90
21267;DHT22;10791;53.108;18.326;2022-08-23T23:09:10;18.80;99.90
21267;DHT22;10791;53.108;18.326;2022-08-23T23:14:15;18.80;99.90
21267;DHT22;10791;53.108;18.326;2022-08-23T23:19:19;18.80;99.90
21267;DHT22;10791;53.108;18.326;2022-08-23T23:24:41;18.90;99.90
21267;DHT22;10791;53.108;18.326;2022-08-23T23:29:44;18.90;99.90
21267;DHT22;10791;53.108;18.326;2022-08-23T23:34:48;18.90;99.90
21267;DHT22;10791;53.108;18.326;2022-08-23T23:40:00;19.00;99.90
21267;DHT22;10791;53.108;18.326;2022-08-23T23:51:55;19.00;99.90
21267;DHT22;10791;53.108;18.326;2022-08-23T23:57:17;18.90;99.90
